Yvoir, Belgium
Current Conditions -  °F | °C
As of 9:25 AM on Sunday 26 Oct 2014 (Local Time) from EBFS Reporting Station
Broken Clouds Broken Clouds  
Wind Chill: 50°   Ceiling: 3200
Heat Index: 50°   Visibility: 6mi
Dew Point: 48°   Wind: 1mph
Humidity: 94%   Direction: NA
Pressure: 30.27"   Gusts: NA
Location:  50.33°N, 4.88°E
Report Text: EBFS 260725Z VRB01KT 9000 BKN032 10/09 Q1025 BLU
Loading
Personal Weather Stations






























Interactive Weather Map
Tropical Storm Tracking
New forecast layout! Learn more

10-Day Weather Forecast

Advertisements
Track Severe Weather on mobile